createdAt,value
2022-12-28T00:01:22.368Z,78.20
2022-12-28T00:03:49.283Z,78.10
2022-12-28T00:06:16.392Z,78.50
2022-12-28T00:08:43.153Z,78.30
2022-12-28T00:11:27.744Z,78.30
2022-12-28T00:13:57.334Z,78.20
2022-12-28T00:16:30.909Z,78.10
2022-12-28T00:18:58.575Z,78.20
2022-12-28T00:21:25.528Z,78.10
2022-12-28T00:23:52.878Z,78.10
2022-12-28T00:26:19.976Z,78.10
2022-12-28T00:28:47.204Z,78.10
2022-12-28T00:31:14.136Z,78.90
2022-12-28T00:33:41.063Z,78.10
2022-12-28T00:36:08.184Z,78.10
2022-12-28T00:38:35.306Z,78.00
2022-12-28T00:41:02.064Z,78.00
2022-12-28T00:43:28.852Z,78.10
2022-12-28T00:45:55.677Z,78.10
2022-12-28T00:48:22.532Z,77.90
2022-12-28T00:50:49.389Z,77.90
2022-12-28T00:53:16.195Z,78.00
2022-12-28T00:55:43.033Z,78.10
2022-12-28T00:58:09.835Z,78.10
2022-12-28T01:00:36.880Z,78.20
2022-12-28T01:03:03.861Z,77.90
2022-12-28T01:05:30.818Z,78.80
2022-12-28T01:07:57.549Z,77.80
2022-12-28T01:10:24.439Z,78.10
2022-12-28T01:12:51.242Z,77.80
2022-12-28T01:15:18.061Z,77.70
2022-12-28T01:17:44.861Z,77.80
2022-12-28T01:20:11.677Z,77.30
2022-12-28T01:22:38.400Z,78.20
2022-12-28T01:25:05.528Z,78.30
2022-12-28T01:27:32.561Z,78.20
2022-12-28T01:29:59.222Z,78.00
2022-12-28T01:32:26.012Z,77.90
2022-12-28T01:34:52.705Z,78.00
2022-12-28T01:37:19.430Z,78.10
2022-12-28T01:39:46.236Z,77.80
2022-12-28T01:42:17.149Z,77.70
2022-12-28T01:44:46.172Z,77.90
2022-12-28T01:47:31.521Z,77.90
2022-12-28T01:50:12.609Z,78.50
2022-12-28T01:52:51.540Z,77.50
2022-12-28T01:55:24.362Z,77.90
2022-12-28T01:58:03.375Z,77.70
2022-12-28T02:00:30.103Z,77.50
2022-12-28T02:03:03.627Z,77.30
2022-12-28T02:05:32.985Z,77.40
2022-12-28T02:08:05.988Z,77.10
2022-12-28T02:10:42.944Z,77.20
2022-12-28T02:13:12.789Z,77.20
2022-12-28T02:15:39.588Z,77.40
2022-12-28T02:18:06.427Z,77.30
2022-12-28T02:20:48.216Z,76.80
2022-12-28T02:23:28.067Z,77.10
2022-12-28T02:26:25.264Z,78.30
2022-12-28T02:29:13.313Z,77.50
2022-12-28T02:31:43.954Z,77.20
2022-12-28T02:34:23.957Z,77.10
2022-12-28T02:36:58.121Z,77.10
2022-12-28T02:39:34.868Z,77.20
2022-12-28T02:42:01.611Z,77.30
2022-12-28T02:44:46.868Z,77.10
2022-12-28T02:47:33.457Z,76.90
2022-12-28T02:50:06.722Z,77.00
2022-12-28T02:52:39.409Z,76.90
2022-12-28T02:56:09.500Z,76.50
2022-12-28T02:58:55.000Z,77.10
2022-12-28T03:01:27.443Z,76.80
2022-12-28T03:04:36.834Z,77.10
2022-12-28T03:07:22.145Z,77.10
2022-12-28T03:10:12.930Z,76.80
2022-12-28T03:12:48.375Z,77.10
2022-12-28T03:15:29.522Z,77.00
2022-12-28T03:18:31.785Z,76.80
2022-12-28T03:21:18.391Z,77.00
2022-12-28T03:24:03.552Z,76.90
2022-12-28T03:26:49.098Z,76.80
2022-12-28T03:29:35.404Z,76.70
2022-12-28T03:32:02.245Z,76.90
2022-12-28T03:34:29.017Z,76.90
2022-12-28T03:37:11.812Z,76.70
2022-12-28T03:39:58.620Z,77.10
2022-12-28T03:42:54.016Z,76.90
2022-12-28T03:45:47.458Z,77.00
2022-12-28T03:48:15.110Z,76.60
2022-12-28T03:50:43.987Z,77.10
2022-12-28T03:53:10.781Z,76.80
2022-12-28T03:55:38.067Z,76.90
2022-12-28T03:58:05.583Z,76.80
2022-12-28T04:00:32.479Z,76.90
2022-12-28T04:02:59.324Z,76.70
2022-12-28T04:05:26.051Z,76.70
2022-12-28T04:07:52.831Z,76.70
2022-12-28T04:10:19.584Z,76.80
2022-12-28T04:12:46.400Z,76.70
2022-12-28T04:15:13.154Z,76.90
2022-12-28T04:17:39.965Z,76.70
2022-12-28T04:20:07.145Z,76.80
2022-12-28T04:22:33.890Z,76.80
2022-12-28T04:25:00.693Z,76.70
2022-12-28T04:27:27.512Z,76.70
2022-12-28T04:29:54.259Z,76.80
2022-12-28T04:32:21.002Z,76.80
2022-12-28T04:34:48.915Z,76.90
2022-12-28T04:37:15.924Z,77.60
2022-12-28T04:39:55.611Z,76.80
2022-12-28T04:42:26.944Z,76.70
2022-12-28T04:44:53.834Z,76.80
2022-12-28T04:47:20.529Z,76.90
2022-12-28T04:49:47.299Z,76.70
2022-12-28T04:52:14.094Z,76.70
2022-12-28T04:54:40.815Z,76.60
2022-12-28T04:57:07.603Z,76.60
2022-12-28T04:59:34.391Z,76.50
2022-12-28T05:02:01.279Z,76.40
2022-12-28T05:04:28.249Z,76.70
2022-12-28T05:06:54.999Z,76.40
2022-12-28T05:09:21.684Z,76.30
2022-12-28T05:11:48.699Z,76.30
2022-12-28T05:14:15.874Z,76.40
2022-12-28T05:16:42.692Z,76.50
2022-12-28T05:19:09.423Z,75.70
2022-12-28T05:21:36.323Z,75.80
2022-12-28T05:24:03.095Z,75.90
2022-12-28T05:26:30.026Z,76.40
2022-12-28T05:28:56.996Z,76.60
2022-12-28T05:31:24.222Z,76.00
2022-12-28T05:33:51.101Z,76.10
2022-12-28T05:36:19.594Z,76.30
2022-12-28T05:38:46.448Z,76.20
2022-12-28T05:41:21.109Z,76.00
2022-12-28T05:43:47.887Z,75.90
2022-12-28T05:46:19.316Z,75.80
2022-12-28T05:48:46.432Z,75.80
2022-12-28T05:51:15.519Z,75.80
2022-12-28T05:53:42.412Z,75.90
2022-12-28T05:56:15.155Z,75.90
2022-12-28T05:58:45.738Z,75.70
2022-12-28T06:01:17.027Z,75.80
2022-12-28T06:03:43.959Z,75.60
2022-12-28T06:06:12.629Z,75.70
2022-12-28T06:08:39.510Z,75.80
2022-12-28T06:11:08.713Z,75.80
2022-12-28T06:13:35.596Z,75.80
2022-12-28T06:16:26.585Z,75.70
2022-12-28T06:18:53.511Z,75.60
2022-12-28T06:21:22.602Z,75.60
2022-12-28T06:23:49.349Z,75.80
2022-12-28T06:26:18.130Z,75.50
2022-12-28T06:28:44.988Z,75.40
2022-12-28T06:31:12.634Z,75.40
2022-12-28T06:33:39.606Z,75.40
2022-12-28T06:36:19.648Z,75.20
2022-12-28T06:38:47.528Z,75.00
2022-12-28T06:41:15.053Z,75.20
2022-12-28T06:43:42.672Z,75.10
2022-12-28T06:46:09.432Z,75.20
2022-12-28T06:48:36.306Z,75.30
2022-12-28T06:51:17.447Z,75.20
2022-12-28T06:53:44.502Z,75.20
2022-12-28T06:56:19.248Z,75.10
2022-12-28T06:58:46.531Z,75.20
2022-12-28T07:01:18.188Z,75.30
2022-12-28T07:03:45.509Z,75.30
2022-12-28T07:06:12.541Z,74.90
2022-12-28T07:08:40.273Z,75.10
2022-12-28T07:11:09.474Z,75.10
2022-12-28T07:13:36.365Z,75.40
2022-12-28T07:16:10.705Z,75.30
2022-12-28T07:18:38.298Z,75.40
2022-12-28T07:21:07.706Z,75.20
2022-12-28T07:23:34.679Z,75.20
2022-12-28T07:26:11.545Z,75.10
2022-12-28T07:28:39.238Z,75.20
2022-12-28T07:31:07.546Z,74.90
2022-12-28T07:33:35.664Z,74.80
2022-12-28T07:36:03.247Z,75.10
2022-12-28T07:38:29.963Z,74.90
2022-12-28T07:41:11.266Z,75.20
2022-12-28T07:43:38.064Z,75.50
2022-12-28T07:46:06.658Z,75.10
2022-12-28T07:48:33.981Z,75.40
2022-12-28T07:51:19.408Z,75.00
2022-12-28T07:53:47.214Z,75.20
2022-12-28T07:56:14.097Z,75.40
2022-12-28T08:01:11.471Z,75.00
2022-12-28T08:03:40.020Z,75.00
2022-12-28T08:06:19.464Z,75.20
2022-12-28T08:08:47.949Z,75.40
2022-12-28T08:11:16.286Z,75.20
2022-12-28T08:13:44.697Z,75.30
2022-12-28T08:16:12.502Z,75.10
2022-12-28T08:18:40.373Z,75.20
2022-12-28T08:21:19.568Z,75.30
2022-12-28T08:23:46.597Z,75.30
2022-12-28T08:26:18.962Z,75.40
2022-12-28T08:28:46.601Z,75.50
2022-12-28T08:31:15.174Z,75.30
2022-12-28T08:33:42.461Z,75.40
2022-12-28T08:36:09.671Z,75.50
2022-12-28T08:38:37.444Z,74.90
2022-12-28T08:41:05.086Z,75.10
2022-12-28T08:43:34.591Z,75.00
2022-12-28T08:46:02.559Z,75.20
2022-12-28T08:48:35.229Z,75.00
2022-12-28T08:51:09.878Z,75.20
2022-12-28T08:53:38.292Z,75.20
2022-12-28T08:56:06.768Z,75.20
2022-12-28T08:58:33.837Z,75.30
2022-12-28T09:01:21.820Z,75.30
2022-12-28T09:03:50.169Z,76.10
2022-12-28T09:06:22.090Z,75.20
2022-12-28T09:09:04.920Z,75.30
2022-12-28T09:11:36.132Z,75.10
2022-12-28T09:14:06.864Z,75.20
2022-12-28T09:16:39.323Z,75.20
2022-12-28T09:19:09.372Z,75.00
2022-12-28T09:21:37.445Z,75.10
2022-12-28T09:24:04.540Z,75.10
2022-12-28T09:26:32.476Z,74.90
2022-12-28T09:29:00.502Z,75.90
2022-12-28T09:31:28.862Z,75.10
2022-12-28T09:36:48.567Z,75.20
2022-12-28T09:39:20.455Z,74.90
2022-12-28T09:41:55.714Z,75.00
2022-12-28T09:44:53.595Z,75.00
2022-12-28T09:47:37.860Z,75.20
2022-12-28T09:50:16.926Z,74.90
2022-12-28T09:52:52.925Z,74.80
2022-12-28T09:55:19.876Z,75.00
2022-12-28T09:57:52.307Z,75.30
2022-12-28T10:00:21.115Z,75.40
2022-12-28T10:02:50.098Z,75.40
2022-12-28T10:05:16.996Z,75.40
2022-12-28T10:07:43.899Z,75.50
2022-12-28T10:10:15.492Z,75.40
2022-12-28T10:12:43.658Z,75.30
2022-12-28T10:15:15.761Z,75.10
2022-12-28T10:17:42.551Z,75.20
2022-12-28T10:20:15.917Z,74.90
2022-12-28T10:22:49.685Z,74.90
2022-12-28T10:25:22.538Z,74.90
2022-12-28T10:27:49.807Z,75.00
2022-12-28T10:30:21.128Z,75.30
2022-12-28T10:33:01.756Z,75.10
2022-12-28T10:35:41.655Z,75.40
2022-12-28T10:38:39.564Z,75.30
2022-12-28T10:41:09.668Z,75.20
2022-12-28T10:43:37.837Z,75.50
2022-12-28T10:46:07.219Z,75.30
2022-12-28T10:48:38.578Z,75.20
2022-12-28T10:51:19.223Z,75.40
2022-12-28T10:53:46.718Z,75.60
2022-12-28T10:56:13.591Z,75.80
2022-12-28T10:58:48.031Z,75.90
2022-12-28T11:01:14.950Z,76.60
2022-12-28T11:03:57.127Z,75.70
2022-12-28T11:06:27.369Z,75.80
2022-12-28T11:09:06.291Z,75.70
2022-12-28T11:11:33.284Z,75.90
2022-12-28T11:14:06.263Z,75.60
2022-12-28T11:16:35.604Z,75.30
2022-12-28T11:19:02.479Z,75.60
2022-12-28T11:21:29.236Z,75.40
2022-12-28T11:23:55.937Z,75.60
2022-12-28T11:26:22.679Z,75.60
2022-12-28T11:28:51.645Z,75.60
2022-12-28T11:31:23.003Z,75.60
2022-12-28T11:33:51.764Z,75.50
2022-12-28T11:36:20.302Z,75.60
2022-12-28T11:38:48.334Z,75.60
2022-12-28T11:41:26.475Z,75.70
2022-12-28T11:44:04.523Z,75.70
2022-12-28T11:46:31.386Z,75.50
2022-12-28T11:49:01.184Z,75.60
2022-12-28T11:51:35.069Z,75.50
2022-12-28T11:54:26.452Z,75.40
2022-12-28T11:56:55.184Z,75.20
2022-12-28T11:59:29.533Z,75.10
2022-12-28T12:01:58.109Z,75.00
2022-12-28T12:04:30.329Z,75.00
2022-12-28T12:07:01.520Z,74.60
2022-12-28T12:09:32.818Z,74.40
2022-12-28T12:12:00.828Z,74.70
2022-12-28T12:14:32.416Z,74.40
2022-12-28T12:17:33.950Z,74.10
2022-12-28T12:20:24.497Z,74.10
2022-12-28T12:23:05.694Z,74.00
2022-12-28T12:25:39.587Z,74.10
2022-12-28T12:28:29.867Z,73.40
2022-12-28T12:30:56.731Z,73.60
2022-12-28T12:33:28.177Z,73.80
2022-12-28T12:36:13.359Z,73.70
2022-12-28T12:39:16.250Z,74.00
2022-12-28T12:42:06.260Z,74.00
2022-12-28T12:45:14.873Z,74.00
2022-12-28T12:48:03.714Z,75.10
2022-12-28T12:50:46.771Z,74.40
2022-12-28T12:53:19.501Z,74.30
2022-12-28T12:56:04.007Z,74.20
2022-12-28T12:58:40.120Z,74.40
2022-12-28T13:01:25.631Z,74.40
2022-12-28T13:03:53.687Z,74.50
2022-12-28T13:06:22.819Z,74.10
2022-12-28T13:08:56.340Z,73.90
2022-12-28T13:11:24.823Z,74.20
2022-12-28T13:13:53.122Z,74.30
2022-12-28T13:16:27.772Z,74.40
2022-12-28T13:18:57.833Z,74.30
2022-12-28T13:21:26.545Z,74.50
2022-12-28T13:23:53.428Z,74.00
2022-12-28T13:26:28.831Z,73.40
2022-12-28T13:29:02.837Z,73.00
2022-12-28T13:31:33.107Z,72.90
2022-12-28T13:34:02.343Z,73.20
2022-12-28T13:36:29.376Z,72.90
2022-12-28T13:39:09.480Z,72.90
2022-12-28T13:41:36.476Z,72.90
2022-12-28T13:44:12.406Z,73.10
2022-12-28T13:46:39.530Z,73.20
2022-12-28T13:49:06.386Z,73.10
2022-12-28T13:51:35.744Z,73.10
2022-12-28T13:54:02.504Z,73.40
2022-12-28T13:56:29.216Z,73.30
2022-12-28T13:59:00.912Z,73.50
2022-12-28T14:01:33.377Z,73.40
2022-12-28T14:04:50.461Z,73.50
2022-12-28T14:06:54.324Z,73.40
2022-12-28T14:09:21.150Z,73.10
2022-12-28T14:11:48.010Z,72.80
2022-12-28T14:14:14.757Z,73.60
2022-12-28T14:16:41.721Z,73.70
2022-12-28T14:19:08.523Z,73.80
2022-12-28T14:21:40.875Z,73.70
2022-12-28T14:24:09.964Z,73.60
2022-12-28T14:26:38.156Z,73.60
2022-12-28T14:29:10.304Z,73.60
2022-12-28T14:31:37.091Z,73.50
2022-12-28T14:34:05.243Z,73.50
2022-12-28T14:36:48.501Z,73.30
2022-12-28T14:39:39.045Z,73.40
2022-12-28T14:42:06.721Z,73.30
2022-12-28T14:44:38.053Z,73.30
2022-12-28T14:47:39.652Z,73.40
2022-12-28T14:50:32.934Z,73.30
2022-12-28T14:53:15.606Z,73.10
2022-12-28T14:56:04.427Z,73.10
2022-12-28T14:58:41.590Z,73.00
2022-12-28T15:01:10.962Z,73.10
2022-12-28T15:03:53.187Z,73.00
2022-12-28T15:06:20.983Z,72.80
2022-12-28T15:08:51.098Z,72.50
2022-12-28T15:11:19.241Z,72.70
2022-12-28T15:13:46.346Z,73.30
2022-12-28T15:16:13.275Z,72.70
2022-12-28T15:18:45.140Z,72.80
2022-12-28T15:21:13.194Z,72.70
2022-12-28T15:23:41.323Z,72.40
2022-12-28T15:26:09.250Z,72.30
2022-12-28T15:28:36.277Z,72.30
2022-12-28T15:31:07.131Z,72.40
2022-12-28T15:33:37.112Z,72.40
2022-12-28T15:36:13.513Z,72.30
2022-12-28T15:38:43.709Z,72.20
2022-12-28T15:41:28.873Z,72.20
2022-12-28T15:43:55.649Z,73.10
2022-12-28T15:46:22.414Z,72.10
2022-12-28T15:48:49.156Z,72.20
2022-12-28T15:51:17.137Z,72.40
2022-12-28T15:53:43.902Z,72.30
2022-12-28T15:56:20.310Z,72.20
2022-12-28T15:58:47.092Z,72.10
2022-12-28T16:01:13.970Z,72.10
2022-12-28T16:03:40.881Z,71.80
2022-12-28T16:06:07.780Z,71.30
2022-12-28T16:08:34.514Z,71.70
2022-12-28T16:11:09.697Z,71.50
2022-12-28T16:13:36.524Z,71.40
2022-12-28T16:16:07.207Z,71.30
2022-12-28T16:18:34.043Z,71.30
2022-12-28T16:21:05.494Z,71.30
2022-12-28T16:23:34.509Z,71.20
2022-12-28T16:26:01.299Z,71.20
2022-12-28T16:28:28.524Z,71.40
2022-12-28T16:30:55.308Z,71.20
2022-12-28T16:33:22.183Z,71.20
2022-12-28T16:35:51.908Z,71.10
2022-12-28T16:38:24.107Z,72.40
2022-12-28T16:40:51.132Z,71.60
2022-12-28T16:43:20.636Z,71.80
2022-12-28T16:45:47.375Z,71.90
2022-12-28T16:48:15.145Z,72.10
2022-12-28T16:50:42.326Z,72.00
2022-12-28T16:53:09.298Z,71.80
2022-12-28T16:55:41.558Z,71.70
2022-12-28T16:58:08.731Z,71.60
2022-12-28T17:00:35.502Z,71.40
2022-12-28T17:03:02.453Z,71.20
2022-12-28T17:05:34.056Z,71.50
2022-12-28T17:08:03.990Z,71.30
2022-12-28T17:10:31.142Z,71.30
2022-12-28T17:12:57.958Z,71.20
2022-12-28T17:15:24.722Z,71.30
2022-12-28T17:17:51.445Z,71.30
2022-12-28T17:20:18.256Z,71.50
2022-12-28T17:22:45.144Z,71.30
2022-12-28T17:25:11.929Z,71.00
2022-12-28T17:27:38.662Z,71.20
2022-12-28T17:30:05.794Z,71.40
2022-12-28T17:32:33.649Z,72.00
2022-12-28T17:35:00.378Z,71.20
2022-12-28T17:37:27.183Z,71.10
2022-12-28T17:39:56.082Z,71.70
2022-12-28T17:42:23.013Z,71.70
2022-12-28T17:44:49.826Z,71.50
2022-12-28T17:47:16.623Z,71.50
2022-12-28T17:49:43.400Z,71.70
2022-12-28T17:52:10.289Z,71.70
2022-12-28T17:54:37.047Z,71.70
2022-12-28T17:57:03.793Z,71.90
2022-12-28T17:59:30.609Z,72.10
2022-12-28T18:01:58.174Z,72.10
2022-12-28T18:04:25.441Z,72.20
2022-12-28T18:06:52.274Z,72.30
2022-12-28T18:09:25.524Z,72.40
2022-12-28T18:11:54.329Z,72.40
2022-12-28T18:14:21.056Z,72.40
2022-12-28T18:16:47.935Z,73.40
2022-12-28T18:19:14.780Z,72.70
2022-12-28T18:21:41.582Z,72.50
2022-12-28T18:24:11.070Z,72.50
2022-12-28T18:26:37.879Z,72.60
2022-12-28T18:29:04.587Z,72.70
2022-12-28T18:31:31.352Z,72.60
2022-12-28T18:33:58.653Z,72.60
2022-12-28T18:36:25.426Z,72.70
2022-12-28T18:38:52.267Z,72.80
2022-12-28T18:41:20.853Z,72.80
2022-12-28T18:43:47.804Z,72.90
2022-12-28T18:46:14.729Z,73.10
2022-12-28T18:48:41.980Z,73.00
2022-12-28T18:51:10.826Z,73.00
2022-12-28T18:53:37.727Z,73.00
2022-12-28T18:56:15.342Z,72.80
2022-12-28T18:58:42.310Z,73.00
2022-12-28T19:01:25.758Z,72.90
2022-12-28T19:03:58.802Z,73.10
2022-12-28T19:06:26.083Z,73.00
2022-12-28T19:08:52.852Z,73.20
2022-12-28T19:11:19.613Z,73.30
2022-12-28T19:13:46.502Z,73.20
2022-12-28T19:16:15.562Z,73.30
2022-12-28T19:18:42.407Z,73.50
2022-12-28T19:21:29.556Z,73.10
2022-12-28T19:23:57.595Z,73.20
2022-12-28T19:26:24.564Z,73.10
2022-12-28T19:28:51.488Z,73.10
2022-12-28T19:31:18.451Z,73.00
2022-12-28T19:33:45.223Z,73.10
2022-12-28T19:36:12.663Z,73.10
2022-12-28T19:38:39.533Z,73.20
2022-12-28T19:41:08.230Z,73.30
2022-12-28T19:43:35.057Z,73.20
2022-12-28T19:46:03.529Z,73.20
2022-12-28T19:48:30.344Z,73.20
2022-12-28T19:50:57.195Z,73.20
2022-12-28T19:53:23.985Z,73.40
2022-12-28T19:55:50.825Z,73.50
2022-12-28T19:58:19.156Z,73.40
2022-12-28T20:00:45.943Z,73.30
2022-12-28T20:03:12.907Z,73.50
2022-12-28T20:05:39.818Z,73.70
2022-12-28T20:08:06.564Z,73.90
2022-12-28T20:10:33.357Z,73.70
2022-12-28T20:13:00.154Z,73.70
2022-12-28T20:15:26.969Z,73.70
2022-12-28T20:17:53.662Z,73.80
2022-12-28T20:20:25.193Z,73.40
2022-12-28T20:22:53.715Z,74.40
2022-12-28T20:25:20.543Z,73.70
2022-12-28T20:27:47.310Z,74.10
2022-12-28T20:30:14.183Z,74.00
2022-12-28T20:32:44.655Z,73.90
2022-12-28T20:35:11.901Z,73.60
2022-12-28T20:37:38.657Z,73.40
2022-12-28T20:40:06.011Z,73.80
2022-12-28T20:42:51.045Z,73.70
2022-12-28T20:45:17.840Z,73.70
2022-12-28T20:47:44.691Z,73.80
2022-12-28T20:50:11.494Z,73.80
2022-12-28T20:52:38.270Z,73.70
2022-12-28T20:55:05.254Z,73.70
2022-12-28T20:57:32.004Z,74.00
2022-12-28T20:59:59.245Z,74.80
2022-12-28T21:02:26.127Z,73.90
2022-12-28T21:04:53.076Z,74.00
2022-12-28T21:07:21.485Z,74.00
2022-12-28T21:09:50.736Z,74.00
2022-12-28T21:12:17.912Z,74.10
2022-12-28T21:14:44.927Z,74.00
2022-12-28T21:17:11.718Z,73.90
2022-12-28T21:19:38.482Z,74.00
2022-12-28T21:22:05.322Z,73.90
2022-12-28T21:24:36.379Z,73.70
2022-12-28T21:27:03.089Z,73.70
2022-12-28T21:29:31.103Z,73.90
2022-12-28T21:31:57.841Z,73.80
2022-12-28T21:34:27.876Z,73.70
2022-12-28T21:36:55.269Z,73.70
2022-12-28T21:39:22.463Z,73.70
2022-12-28T21:41:49.625Z,74.00
2022-12-28T21:44:19.629Z,74.00
2022-12-28T21:46:46.773Z,74.10
2022-12-28T21:49:13.669Z,74.30
2022-12-28T21:51:41.093Z,74.20
2022-12-28T21:54:14.809Z,74.30
2022-12-28T21:56:42.231Z,74.30
2022-12-28T21:59:09.593Z,74.20
2022-12-28T22:01:54.760Z,74.00
2022-12-28T22:04:41.053Z,74.10
2022-12-28T22:07:08.876Z,74.10
2022-12-28T22:09:54.375Z,74.40
2022-12-28T22:12:39.672Z,74.30
2022-12-28T22:15:29.830Z,74.20
2022-12-28T22:18:01.983Z,74.10
2022-12-28T22:20:29.108Z,74.40
2022-12-28T22:22:56.925Z,74.20
2022-12-28T22:25:23.953Z,74.10
2022-12-28T22:27:50.842Z,74.20
2022-12-28T22:30:17.767Z,74.20
2022-12-28T22:32:44.601Z,74.30
2022-12-28T22:35:11.439Z,74.30
2022-12-28T22:37:38.243Z,74.40
2022-12-28T22:40:05.739Z,74.40
2022-12-28T22:42:32.555Z,74.40
2022-12-28T22:44:59.323Z,74.30
2022-12-28T22:47:29.177Z,74.40
2022-12-28T22:49:55.931Z,74.40
2022-12-28T22:52:22.770Z,74.30
2022-12-28T22:54:49.988Z,74.50
2022-12-28T22:57:16.801Z,74.30
2022-12-28T22:59:43.601Z,74.10
2022-12-28T23:02:10.483Z,74.40
2022-12-28T23:04:37.382Z,74.30
2022-12-28T23:07:04.561Z,74.20
2022-12-28T23:09:31.799Z,74.30
2022-12-28T23:11:58.701Z,74.20
2022-12-28T23:14:44.269Z,74.20
2022-12-28T23:17:12.705Z,74.20
2022-12-28T23:19:58.030Z,74.10
2022-12-28T23:22:45.266Z,74.10
2022-12-28T23:25:32.238Z,74.40
2022-12-28T23:28:00.047Z,74.00
2022-12-28T23:30:27.355Z,74.00
2022-12-28T23:32:54.427Z,74.80
2022-12-28T23:35:21.582Z,74.00
2022-12-28T23:37:48.536Z,74.00
2022-12-28T23:40:16.891Z,74.00
2022-12-28T23:42:43.859Z,74.00
2022-12-28T23:45:12.348Z,74.90
2022-12-28T23:47:39.194Z,74.10
2022-12-28T23:50:06.311Z,74.10
2022-12-28T23:52:33.107Z,74.00
2022-12-28T23:54:59.899Z,74.00
2022-12-28T23:57:26.755Z,74.00
2022-12-28T23:59:53.600Z,73.90
